sensor_id;sensor_type;location;lat;lon;timestamp;pressure;altitude;pressure_sealevel;temperature;humidity
76794;BME280;65745;50.278;18.192;2023-01-06T00:02:11;100101.95;;;5.67;70.40
76794;BME280;65745;50.278;18.192;2023-01-06T00:04:44;100105.42;;;5.60;70.48
76794;BME280;65745;50.278;18.192;2023-01-06T00:07:16;100106.29;;;5.57;70.45
76794;BME280;65745;50.278;18.192;2023-01-06T00:09:49;100110.98;;;5.59;70.68
76794;BME280;65745;50.278;18.192;2023-01-06T00:12:24;100113.71;;;5.59;71.24
76794;BME280;65745;50.278;18.192;2023-01-06T00:14:59;100118.74;;;5.56;71.35
76794;BME280;65745;50.278;18.192;2023-01-06T00:17:32;100120.90;;;5.54;71.41
76794;BME280;65745;50.278;18.192;2023-01-06T00:20:05;100127.05;;;5.51;70.97
76794;BME280;65745;50.278;18.192;2023-01-06T00:22:39;100133.60;;;5.48;70.72
76794;BME280;65745;50.278;18.192;2023-01-06T00:25:12;100130.86;;;5.44;70.34
76794;BME280;65745;50.278;18.192;2023-01-06T00:27:44;100135.95;;;5.43;70.37
76794;BME280;65745;50.278;18.192;2023-01-06T00:30:16;100142.80;;;5.40;70.42
76794;BME280;65745;50.278;18.192;2023-01-06T00:32:49;100147.34;;;5.38;70.38
76794;BME280;65745;50.278;18.192;2023-01-06T00:37:59;100156.27;;;5.40;70.46
76794;BME280;65745;50.278;18.192;2023-01-06T00:40:38;100158.41;;;5.34;69.99
76794;BME280;65745;50.278;18.192;2023-01-06T00:43:11;100164.55;;;5.30;69.91
76794;BME280;65745;50.278;18.192;2023-01-06T00:45:43;100168.20;;;5.24;69.32
76794;BME280;65745;50.278;18.192;2023-01-06T00:48:15;100168.89;;;5.20;69.75
76794;BME280;65745;50.278;18.192;2023-01-06T00:50:49;100171.74;;;5.20;69.77
76794;BME280;65745;50.278;18.192;2023-01-06T00:53:34;100178.89;;;5.19;70.17
76794;BME280;65745;50.278;18.192;2023-01-06T00:56:07;100183.02;;;5.19;70.15
76794;BME280;65745;50.278;18.192;2023-01-06T00:58:40;100182.80;;;5.22;69.82
76794;BME280;65745;50.278;18.192;2023-01-06T01:01:12;100192.55;;;5.22;69.37
76794;BME280;65745;50.278;18.192;2023-01-06T01:03:45;100193.85;;;5.17;68.95
76794;BME280;65745;50.278;18.192;2023-01-06T01:06:17;100196.60;;;5.14;69.02
76794;BME280;65745;50.278;18.192;2023-01-06T01:09:05;100197.91;;;5.09;68.83
76794;BME280;65745;50.278;18.192;2023-01-06T01:11:38;100199.63;;;5.05;69.05
76794;BME280;65745;50.278;18.192;2023-01-06T01:14:33;100205.23;;;4.97;69.18
76794;BME280;65745;50.278;18.192;2023-01-06T01:17:06;100208.27;;;4.93;69.16
76794;BME280;65745;50.278;18.192;2023-01-06T01:19:45;100210.71;;;4.84;69.20
76794;BME280;65745;50.278;18.192;2023-01-06T01:22:18;100213.98;;;4.77;69.36
76794;BME280;65745;50.278;18.192;2023-01-06T01:24:50;100212.19;;;4.68;69.45
76794;BME280;65745;50.278;18.192;2023-01-06T01:27:28;100216.83;;;4.58;69.54
76794;BME280;65745;50.278;18.192;2023-01-06T01:30:01;100221.73;;;4.50;69.51
76794;BME280;65745;50.278;18.192;2023-01-06T01:32:33;100229.33;;;4.45;69.58
76794;BME280;65745;50.278;18.192;2023-01-06T01:35:10;100236.09;;;4.41;69.45
76794;BME280;65745;50.278;18.192;2023-01-06T01:37:42;100237.33;;;4.35;69.36
76794;BME280;65745;50.278;18.192;2023-01-06T01:40:14;100239.39;;;4.32;69.86
76794;BME280;65745;50.278;18.192;2023-01-06T01:42:47;100242.52;;;4.30;70.30
76794;BME280;65745;50.278;18.192;2023-01-06T01:45:23;100239.96;;;4.30;70.65
76794;BME280;65745;50.278;18.192;2023-01-06T01:48:00;100238.10;;;4.26;70.47
76794;BME280;65745;50.278;18.192;2023-01-06T01:50:41;100238.09;;;4.19;69.94
76794;BME280;65745;50.278;18.192;2023-01-06T01:53:18;100242.39;;;4.17;69.89
76794;BME280;65745;50.278;18.192;2023-01-06T01:55:54;100246.91;;;4.12;69.87
76794;BME280;65745;50.278;18.192;2023-01-06T01:58:37;100244.16;;;4.08;69.67
76794;BME280;65745;50.278;18.192;2023-01-06T02:01:11;100243.81;;;4.01;69.74
76794;BME280;65745;50.278;18.192;2023-01-06T02:03:44;100249.33;;;3.93;69.85
76794;BME280;65745;50.278;18.192;2023-01-06T02:06:20;100251.17;;;3.86;69.81
76794;BME280;65745;50.278;18.192;2023-01-06T02:09:02;100249.49;;;3.80;70.03
76794;BME280;65745;50.278;18.192;2023-01-06T02:11:36;100248.33;;;3.70;70.30
76794;BME280;65745;50.278;18.192;2023-01-06T02:14:11;100247.10;;;3.64;70.45
76794;BME280;65745;50.278;18.192;2023-01-06T02:16:57;100246.02;;;3.56;70.57
76794;BME280;65745;50.278;18.192;2023-01-06T02:20:02;100249.08;;;3.50;70.50
76794;BME280;65745;50.278;18.192;2023-01-06T02:25:54;100251.74;;;3.32;71.24
76794;BME280;65745;50.278;18.192;2023-01-06T02:29:09;100256.08;;;3.24;71.61
76794;BME280;65745;50.278;18.192;2023-01-06T02:32:00;100251.92;;;3.17;71.40
76794;BME280;65745;50.278;18.192;2023-01-06T02:34:41;100254.98;;;3.11;71.96
76794;BME280;65745;50.278;18.192;2023-01-06T02:37:24;100252.66;;;3.06;72.08
76794;BME280;65745;50.278;18.192;2023-01-06T02:40:15;100257.30;;;3.03;72.28
76794;BME280;65745;50.278;18.192;2023-01-06T02:43:03;100264.16;;;3.05;72.61
76794;BME280;65745;50.278;18.192;2023-01-06T02:45:49;100265.05;;;3.08;72.70
76794;BME280;65745;50.278;18.192;2023-01-06T02:48:41;100268.92;;;3.05;72.75
76794;BME280;65745;50.278;18.192;2023-01-06T02:51:22;100276.69;;;3.01;72.34
76794;BME280;65745;50.278;18.192;2023-01-06T02:54:07;100275.60;;;2.93;72.18
76794;BME280;65745;50.278;18.192;2023-01-06T02:56:49;100282.03;;;2.89;72.16
76794;BME280;65745;50.278;18.192;2023-01-06T02:59:28;100276.65;;;2.82;72.42
76794;BME280;65745;50.278;18.192;2023-01-06T03:02:08;100270.80;;;2.75;72.65
76794;BME280;65745;50.278;18.192;2023-01-06T03:04:45;100273.58;;;2.66;73.12
76794;BME280;65745;50.278;18.192;2023-01-06T03:07:22;100282.92;;;2.58;73.59
76794;BME280;65745;50.278;18.192;2023-01-06T03:09:56;100285.77;;;2.54;73.24
76794;BME280;65745;50.278;18.192;2023-01-06T03:12:37;100285.64;;;2.49;73.23
76794;BME280;65745;50.278;18.192;2023-01-06T03:15:13;100284.80;;;2.49;73.00
76794;BME280;65745;50.278;18.192;2023-01-06T03:17:46;100288.70;;;2.49;73.83
76794;BME280;65745;50.278;18.192;2023-01-06T03:20:19;100286.60;;;2.50;74.20
76794;BME280;65745;50.278;18.192;2023-01-06T03:22:52;100289.29;;;2.56;73.68
76794;BME280;65745;50.278;18.192;2023-01-06T03:25:24;100281.54;;;2.48;73.42
76794;BME280;65745;50.278;18.192;2023-01-06T03:28:06;100283.25;;;2.48;73.47
76794;BME280;65745;50.278;18.192;2023-01-06T03:30:45;100289.16;;;2.50;73.17
76794;BME280;65745;50.278;18.192;2023-01-06T03:33:23;100294.17;;;2.49;72.80
76794;BME280;65745;50.278;18.192;2023-01-06T03:36:10;100294.81;;;2.51;72.72
76794;BME280;65745;50.278;18.192;2023-01-06T03:38:54;100294.62;;;2.45;73.15
76794;BME280;65745;50.278;18.192;2023-01-06T03:41:36;100292.33;;;2.38;73.42
76794;BME280;65745;50.278;18.192;2023-01-06T03:44:38;100289.71;;;2.31;73.13
76794;BME280;65745;50.278;18.192;2023-01-06T03:47:25;100286.83;;;2.25;73.37
76794;BME280;65745;50.278;18.192;2023-01-06T03:50:05;100286.05;;;2.24;73.58
76794;BME280;65745;50.278;18.192;2023-01-06T03:52:46;100286.05;;;2.30;74.08
76794;BME280;65745;50.278;18.192;2023-01-06T03:55:24;100284.42;;;2.39;73.98
76794;BME280;65745;50.278;18.192;2023-01-06T03:58:02;100285.19;;;2.50;73.92
76794;BME280;65745;50.278;18.192;2023-01-06T04:00:37;100297.19;;;2.57;73.19
76794;BME280;65745;50.278;18.192;2023-01-06T04:03:12;100294.91;;;2.59;73.15
76794;BME280;65745;50.278;18.192;2023-01-06T04:05:46;100293.71;;;2.56;73.34
76794;BME280;65745;50.278;18.192;2023-01-06T04:08:19;100298.14;;;2.59;73.01
76794;BME280;65745;50.278;18.192;2023-01-06T04:10:52;100300.63;;;2.58;73.33
76794;BME280;65745;50.278;18.192;2023-01-06T04:13:24;100300.31;;;2.61;73.55
76794;BME280;65745;50.278;18.192;2023-01-06T04:15:59;100298.23;;;2.61;73.71
76794;BME280;65745;50.278;18.192;2023-01-06T04:18:31;100299.73;;;2.60;73.37
76794;BME280;65745;50.278;18.192;2023-01-06T04:21:04;100300.02;;;2.62;74.15
76794;BME280;65745;50.278;18.192;2023-01-06T04:23:37;100297.48;;;2.65;73.95
76794;BME280;65745;50.278;18.192;2023-01-06T04:26:10;100293.87;;;2.62;75.46
76794;BME280;65745;50.278;18.192;2023-01-06T04:28:48;100291.58;;;2.66;74.98
76794;BME280;65745;50.278;18.192;2023-01-06T04:31:23;100283.02;;;2.65;75.14
76794;BME280;65745;50.278;18.192;2023-01-06T04:34:05;100281.19;;;2.72;74.87
76794;BME280;65745;50.278;18.192;2023-01-06T04:36:38;100280.46;;;2.74;74.29
76794;BME280;65745;50.278;18.192;2023-01-06T04:39:10;100284.21;;;2.80;74.01
76794;BME280;65745;50.278;18.192;2023-01-06T04:41:42;100283.65;;;2.88;73.63
76794;BME280;65745;50.278;18.192;2023-01-06T04:44:15;100286.73;;;2.91;74.04
76794;BME280;65745;50.278;18.192;2023-01-06T04:46:50;100290.92;;;2.87;74.53
76794;BME280;65745;50.278;18.192;2023-01-06T04:49:23;100289.27;;;2.97;73.48
76794;BME280;65745;50.278;18.192;2023-01-06T04:52:04;100288.48;;;3.08;73.33
76794;BME280;65745;50.278;18.192;2023-01-06T04:54:37;100289.72;;;3.12;73.05
76794;BME280;65745;50.278;18.192;2023-01-06T04:57:09;100289.70;;;3.14;72.82
76794;BME280;65745;50.278;18.192;2023-01-06T04:59:47;100280.40;;;3.21;73.08
76794;BME280;65745;50.278;18.192;2023-01-06T05:02:19;100288.30;;;3.32;73.55
76794;BME280;65745;50.278;18.192;2023-01-06T05:04:52;100289.99;;;3.47;73.79
76794;BME280;65745;50.278;18.192;2023-01-06T05:07:33;100297.21;;;3.64;73.32
76794;BME280;65745;50.278;18.192;2023-01-06T05:10:07;100294.31;;;3.74;72.98
76794;BME280;65745;50.278;18.192;2023-01-06T05:12:46;100296.95;;;3.68;72.71
76794;BME280;65745;50.278;18.192;2023-01-06T05:15:18;100293.77;;;3.70;72.67
76794;BME280;65745;50.278;18.192;2023-01-06T05:17:51;100295.59;;;3.75;72.47
76794;BME280;65745;50.278;18.192;2023-01-06T05:20:24;100297.35;;;3.79;72.25
76794;BME280;65745;50.278;18.192;2023-01-06T05:22:56;100299.34;;;3.81;72.04
76794;BME280;65745;50.278;18.192;2023-01-06T05:25:28;100305.23;;;3.80;72.07
76794;BME280;65745;50.278;18.192;2023-01-06T05:28:00;100308.02;;;3.72;72.07
76794;BME280;65745;50.278;18.192;2023-01-06T05:30:33;100316.51;;;3.68;72.42
76794;BME280;65745;50.278;18.192;2023-01-06T05:33:05;100314.93;;;3.61;72.34
76794;BME280;65745;50.278;18.192;2023-01-06T05:35:37;100322.23;;;3.51;72.67
76794;BME280;65745;50.278;18.192;2023-01-06T05:38:12;100324.35;;;3.49;72.54
76794;BME280;65745;50.278;18.192;2023-01-06T05:40:49;100325.23;;;3.41;72.85
76794;BME280;65745;50.278;18.192;2023-01-06T05:43:21;100326.89;;;3.34;73.54
76794;BME280;65745;50.278;18.192;2023-01-06T05:45:55;100331.09;;;3.36;74.42
76794;BME280;65745;50.278;18.192;2023-01-06T05:48:36;100329.61;;;3.55;73.96
76794;BME280;65745;50.278;18.192;2023-01-06T05:51:10;100337.14;;;3.78;73.21
76794;BME280;65745;50.278;18.192;2023-01-06T05:53:45;100337.04;;;3.92;72.61
76794;BME280;65745;50.278;18.192;2023-01-06T05:56:19;100344.80;;;4.00;72.21
76794;BME280;65745;50.278;18.192;2023-01-06T05:58:53;100347.90;;;4.04;71.94
76794;BME280;65745;50.278;18.192;2023-01-06T06:01:38;100349.00;;;4.06;71.93
76794;BME280;65745;50.278;18.192;2023-01-06T06:04:13;100348.18;;;4.03;71.67
76794;BME280;65745;50.278;18.192;2023-01-06T06:06:46;100350.36;;;3.93;71.74
76794;BME280;65745;50.278;18.192;2023-01-06T06:09:21;100352.55;;;3.79;71.93
76794;BME280;65745;50.278;18.192;2023-01-06T06:12:06;100345.50;;;3.60;72.80
76794;BME280;65745;50.278;18.192;2023-01-06T06:14:38;100344.08;;;3.49;72.87
76794;BME280;65745;50.278;18.192;2023-01-06T06:17:14;100346.20;;;3.53;72.62
76794;BME280;65745;50.278;18.192;2023-01-06T06:19:52;100346.45;;;3.58;72.49
76794;BME280;65745;50.278;18.192;2023-01-06T06:22:30;100345.30;;;3.59;72.90
76794;BME280;65745;50.278;18.192;2023-01-06T06:25:06;100348.13;;;3.76;73.46
76794;BME280;65745;50.278;18.192;2023-01-06T06:27:37;100345.64;;;3.90;73.74
76794;BME280;65745;50.278;18.192;2023-01-06T06:30:10;100336.14;;;4.01;73.17
76794;BME280;65745;50.278;18.192;2023-01-06T06:32:49;100338.28;;;4.00;72.78
76794;BME280;65745;50.278;18.192;2023-01-06T06:35:21;100335.46;;;3.98;72.96
76794;BME280;65745;50.278;18.192;2023-01-06T06:38:07;100339.88;;;3.88;72.98
76794;BME280;65745;50.278;18.192;2023-01-06T06:40:43;100335.52;;;3.89;73.01
76794;BME280;65745;50.278;18.192;2023-01-06T06:43:18;100340.56;;;3.81;73.16
76794;BME280;65745;50.278;18.192;2023-01-06T06:45:51;100343.08;;;3.77;73.02
76794;BME280;65745;50.278;18.192;2023-01-06T06:48:23;100344.88;;;3.70;73.13
76794;BME280;65745;50.278;18.192;2023-01-06T06:51:03;100337.05;;;3.73;73.41
76794;BME280;65745;50.278;18.192;2023-01-06T06:53:39;100338.40;;;3.82;73.94
76794;BME280;65745;50.278;18.192;2023-01-06T06:56:13;100331.83;;;3.87;74.20
76794;BME280;65745;50.278;18.192;2023-01-06T06:58:46;100329.27;;;3.93;73.98
76794;BME280;65745;50.278;18.192;2023-01-06T07:01:19;100329.72;;;3.92;73.76
76794;BME280;65745;50.278;18.192;2023-01-06T07:03:52;100327.48;;;3.89;73.80
76794;BME280;65745;50.278;18.192;2023-01-06T07:06:25;100328.59;;;3.87;73.62
76794;BME280;65745;50.278;18.192;2023-01-06T07:08:58;100332.70;;;3.84;73.29
76794;BME280;65745;50.278;18.192;2023-01-06T07:11:31;100337.45;;;3.80;73.38
76794;BME280;65745;50.278;18.192;2023-01-06T07:14:03;100342.06;;;3.80;73.51
76794;BME280;65745;50.278;18.192;2023-01-06T07:16:36;100349.05;;;3.81;73.75
76794;BME280;65745;50.278;18.192;2023-01-06T07:19:10;100352.02;;;3.79;74.26
76794;BME280;65745;50.278;18.192;2023-01-06T07:21:42;100350.10;;;3.75;74.81
76794;BME280;65745;50.278;18.192;2023-01-06T07:24:17;100352.64;;;3.81;75.08
76794;BME280;65745;50.278;18.192;2023-01-06T07:26:53;100345.23;;;3.90;75.09
76794;BME280;65745;50.278;18.192;2023-01-06T07:29:31;100343.98;;;3.95;74.60
76794;BME280;65745;50.278;18.192;2023-01-06T07:32:04;100343.91;;;3.93;74.53
76794;BME280;65745;50.278;18.192;2023-01-06T07:34:46;100342.70;;;3.99;74.06
76794;BME280;65745;50.278;18.192;2023-01-06T07:37:18;100339.48;;;4.00;73.93
76794;BME280;65745;50.278;18.192;2023-01-06T07:39:51;100337.92;;;3.96;73.98
76794;BME280;65745;50.278;18.192;2023-01-06T07:42:23;100343.01;;;3.99;73.93
76794;BME280;65745;50.278;18.192;2023-01-06T07:44:56;100349.80;;;4.02;73.69
76794;BME280;65745;50.278;18.192;2023-01-06T07:47:28;100355.92;;;4.04;73.57
76794;BME280;65745;50.278;18.192;2023-01-06T07:50:01;100361.69;;;4.04;73.63
76794;BME280;65745;50.278;18.192;2023-01-06T07:52:34;100361.49;;;4.10;73.95
76794;BME280;65745;50.278;18.192;2023-01-06T07:55:07;100365.09;;;4.16;74.28
76794;BME280;65745;50.278;18.192;2023-01-06T07:57:40;100372.56;;;4.19;73.94
76794;BME280;65745;50.278;18.192;2023-01-06T08:00:14;100373.88;;;4.25;73.26
76794;BME280;65745;50.278;18.192;2023-01-06T08:02:46;100369.73;;;4.23;72.95
76794;BME280;65745;50.278;18.192;2023-01-06T08:05:22;100362.00;;;4.19;72.73
76794;BME280;65745;50.278;18.192;2023-01-06T08:07:57;100359.26;;;4.16;72.70
76794;BME280;65745;50.278;18.192;2023-01-06T08:10:30;100353.95;;;4.09;72.87
76794;BME280;65745;50.278;18.192;2023-01-06T08:13:02;100356.41;;;4.13;73.29
76794;BME280;65745;50.278;18.192;2023-01-06T08:15:35;100351.86;;;4.14;73.65
76794;BME280;65745;50.278;18.192;2023-01-06T08:18:09;100357.71;;;4.18;73.43
76794;BME280;65745;50.278;18.192;2023-01-06T08:20:41;100358.54;;;4.18;73.26
76794;BME280;65745;50.278;18.192;2023-01-06T08:23:13;100357.13;;;4.11;72.98
76794;BME280;65745;50.278;18.192;2023-01-06T08:25:46;100354.25;;;4.11;72.88
76794;BME280;65745;50.278;18.192;2023-01-06T08:28:21;100352.89;;;4.08;72.99
76794;BME280;65745;50.278;18.192;2023-01-06T08:31:08;100358.38;;;4.05;72.77
76794;BME280;65745;50.278;18.192;2023-01-06T08:33:48;100363.11;;;4.01;72.72
76794;BME280;65745;50.278;18.192;2023-01-06T08:36:23;100368.01;;;4.01;73.40
76794;BME280;65745;50.278;18.192;2023-01-06T08:38:56;100367.39;;;4.02;73.97
76794;BME280;65745;50.278;18.192;2023-01-06T08:41:32;100370.08;;;3.98;74.02
76794;BME280;65745;50.278;18.192;2023-01-06T08:44:04;100368.88;;;4.01;73.95
76794;BME280;65745;50.278;18.192;2023-01-06T08:46:39;100364.94;;;4.01;73.65
76794;BME280;65745;50.278;18.192;2023-01-06T08:49:18;100368.55;;;3.95;73.74
76794;BME280;65745;50.278;18.192;2023-01-06T08:51:50;100366.81;;;4.01;73.36
76794;BME280;65745;50.278;18.192;2023-01-06T08:54:22;100368.48;;;4.00;73.40
76794;BME280;65745;50.278;18.192;2023-01-06T08:56:55;100365.94;;;4.03;73.30
76794;BME280;65745;50.278;18.192;2023-01-06T08:59:27;100357.16;;;4.11;73.44
76794;BME280;65745;50.278;18.192;2023-01-06T09:02:00;100352.20;;;4.21;73.63
76794;BME280;65745;50.278;18.192;2023-01-06T09:04:33;100352.73;;;4.31;73.30
76794;BME280;65745;50.278;18.192;2023-01-06T09:07:05;100351.61;;;4.36;73.27
76794;BME280;65745;50.278;18.192;2023-01-06T09:09:41;100351.21;;;4.41;73.22
76794;BME280;65745;50.278;18.192;2023-01-06T09:12:16;100345.10;;;4.35;73.72
76794;BME280;65745;50.278;18.192;2023-01-06T09:14:48;100347.39;;;4.37;73.62
76794;BME280;65745;50.278;18.192;2023-01-06T09:17:20;100349.48;;;4.37;73.66
76794;BME280;65745;50.278;18.192;2023-01-06T09:19:52;100346.52;;;4.36;73.90
76794;BME280;65745;50.278;18.192;2023-01-06T09:22:25;100348.43;;;4.40;74.43
76794;BME280;65745;50.278;18.192;2023-01-06T09:25:00;100347.81;;;4.51;73.91
76794;BME280;65745;50.278;18.192;2023-01-06T09:27:33;100348.17;;;4.58;73.46
76794;BME280;65745;50.278;18.192;2023-01-06T09:30:06;100348.64;;;4.67;73.20
76794;BME280;65745;50.278;18.192;2023-01-06T09:32:42;100341.09;;;4.77;72.57
76794;BME280;65745;50.278;18.192;2023-01-06T09:35:17;100327.26;;;4.70;72.93
76794;BME280;65745;50.278;18.192;2023-01-06T09:37:49;100326.92;;;4.80;73.33
76794;BME280;65745;50.278;18.192;2023-01-06T09:40:24;100319.92;;;4.97;73.51
76794;BME280;65745;50.278;18.192;2023-01-06T09:43:09;100316.98;;;5.07;73.14
76794;BME280;65745;50.278;18.192;2023-01-06T09:45:47;100308.95;;;5.21;72.70
76794;BME280;65745;50.278;18.192;2023-01-06T09:48:24;100309.25;;;5.35;72.20
76794;BME280;65745;50.278;18.192;2023-01-06T09:51:02;100311.70;;;5.43;71.95
76794;BME280;65745;50.278;18.192;2023-01-06T09:53:41;100306.69;;;5.45;71.31
76794;BME280;65745;50.278;18.192;2023-01-06T09:56:17;100300.10;;;5.43;71.26
76794;BME280;65745;50.278;18.192;2023-01-06T09:58:56;100289.86;;;5.51;71.70
76794;BME280;65745;50.278;18.192;2023-01-06T10:01:38;100280.52;;;5.64;71.66
76794;BME280;65745;50.278;18.192;2023-01-06T10:04:15;100275.30;;;5.62;70.57
76794;BME280;65745;50.278;18.192;2023-01-06T10:06:54;100270.33;;;5.65;70.94
76794;BME280;65745;50.278;18.192;2023-01-06T10:09:42;100268.23;;;5.71;71.00
76794;BME280;65745;50.278;18.192;2023-01-06T10:12:26;100268.38;;;5.74;70.36
76794;BME280;65745;50.278;18.192;2023-01-06T10:15:16;100260.02;;;5.79;69.81
76794;BME280;65745;50.278;18.192;2023-01-06T10:18:00;100261.23;;;5.79;70.29
76794;BME280;65745;50.278;18.192;2023-01-06T10:21:00;100260.83;;;5.85;69.98
76794;BME280;65745;50.278;18.192;2023-01-06T10:23:50;100256.25;;;5.82;70.34
76794;BME280;65745;50.278;18.192;2023-01-06T10:26:40;100254.77;;;5.98;70.89
76794;BME280;65745;50.278;18.192;2023-01-06T10:29:17;100254.42;;;6.10;70.12
76794;BME280;65745;50.278;18.192;2023-01-06T10:31:54;100248.61;;;6.18;69.54
76794;BME280;65745;50.278;18.192;2023-01-06T10:34:34;100248.15;;;6.19;69.72
76794;BME280;65745;50.278;18.192;2023-01-06T10:37:13;100235.92;;;6.17;69.25
76794;BME280;65745;50.278;18.192;2023-01-06T10:39:54;100227.27;;;6.15;69.22
76794;BME280;65745;50.278;18.192;2023-01-06T10:42:37;100224.63;;;6.09;69.28
76794;BME280;65745;50.278;18.192;2023-01-06T10:45:41;100218.16;;;6.06;69.50
76794;BME280;65745;50.278;18.192;2023-01-06T10:48:16;100211.06;;;6.08;69.90
76794;BME280;65745;50.278;18.192;2023-01-06T10:50:52;100214.29;;;6.11;70.39
76794;BME280;65745;50.278;18.192;2023-01-06T10:53:33;100218.59;;;6.24;69.88
76794;BME280;65745;50.278;18.192;2023-01-06T10:56:07;100213.67;;;6.33;69.27
76794;BME280;65745;50.278;18.192;2023-01-06T10:58:49;100206.31;;;6.41;69.19
76794;BME280;65745;50.278;18.192;2023-01-06T11:01:28;100197.91;;;6.49;68.82
76794;BME280;65745;50.278;18.192;2023-01-06T11:04:09;100195.00;;;6.53;68.94
76794;BME280;65745;50.278;18.192;2023-01-06T11:06:44;100193.02;;;6.67;68.89
76794;BME280;65745;50.278;18.192;2023-01-06T11:09:36;100192.15;;;6.80;68.87
76794;BME280;65745;50.278;18.192;2023-01-06T11:12:13;100190.34;;;6.91;68.83
76794;BME280;65745;50.278;18.192;2023-01-06T11:14:52;100190.98;;;7.07;68.31
76794;BME280;65745;50.278;18.192;2023-01-06T11:17:33;100186.91;;;7.08;68.18
76794;BME280;65745;50.278;18.192;2023-01-06T11:20:25;100183.54;;;7.09;68.03
76794;BME280;65745;50.278;18.192;2023-01-06T11:23:13;100180.45;;;7.13;68.35
76794;BME280;65745;50.278;18.192;2023-01-06T11:26:21;100170.61;;;7.21;68.04
76794;BME280;65745;50.278;18.192;2023-01-06T11:28:55;100167.94;;;7.27;68.35
76794;BME280;65745;50.278;18.192;2023-01-06T11:31:29;100164.40;;;7.24;68.58
76794;BME280;65745;50.278;18.192;2023-01-06T11:34:03;100163.67;;;7.09;68.87
76794;BME280;65745;50.278;18.192;2023-01-06T11:36:44;100157.70;;;6.97;68.61
76794;BME280;65745;50.278;18.192;2023-01-06T11:39:23;100149.37;;;6.93;68.80
76794;BME280;65745;50.278;18.192;2023-01-06T11:42:07;100141.42;;;6.92;68.92
76794;BME280;65745;50.278;18.192;2023-01-06T11:44:42;100144.23;;;6.94;68.91
76794;BME280;65745;50.278;18.192;2023-01-06T11:47:16;100145.52;;;6.96;69.17
76794;BME280;65745;50.278;18.192;2023-01-06T11:49:51;100134.81;;;7.02;69.47
76794;BME280;65745;50.278;18.192;2023-01-06T11:52:27;100122.96;;;7.06;69.84
76794;BME280;65745;50.278;18.192;2023-01-06T11:55:22;100124.65;;;7.10;69.65
76794;BME280;65745;50.278;18.192;2023-01-06T11:58:02;100124.35;;;7.07;69.49
76794;BME280;65745;50.278;18.192;2023-01-06T12:00:48;100126.96;;;6.99;69.44
76794;BME280;65745;50.278;18.192;2023-01-06T12:03:27;100131.61;;;6.95;69.84
76794;BME280;65745;50.278;18.192;2023-01-06T12:06:13;100129.54;;;6.90;69.89
76794;BME280;65745;50.278;18.192;2023-01-06T12:08:57;100124.84;;;6.93;70.20
76794;BME280;65745;50.278;18.192;2023-01-06T12:11:41;100118.86;;;7.02;70.46
76794;BME280;65745;50.278;18.192;2023-01-06T12:14:20;100118.83;;;7.06;70.98
76794;BME280;65745;50.278;18.192;2023-01-06T12:17:09;100113.52;;;7.06;70.24
76794;BME280;65745;50.278;18.192;2023-01-06T12:19:47;100107.45;;;7.13;70.54
76794;BME280;65745;50.278;18.192;2023-01-06T12:22:27;100102.30;;;7.13;70.53
76794;BME280;65745;50.278;18.192;2023-01-06T12:25:13;100093.61;;;7.23;70.42
76794;BME280;65745;50.278;18.192;2023-01-06T12:27:52;100090.58;;;7.29;70.55
76794;BME280;65745;50.278;18.192;2023-01-06T12:30:29;100081.84;;;7.29;71.27
76794;BME280;65745;50.278;18.192;2023-01-06T12:33:13;100074.05;;;7.41;71.70
76794;BME280;65745;50.278;18.192;2023-01-06T12:35:51;100070.45;;;7.47;71.25
76794;BME280;65745;50.278;18.192;2023-01-06T12:38:40;100064.71;;;7.44;70.90
76794;BME280;65745;50.278;18.192;2023-01-06T12:41:18;100052.55;;;7.35;71.80
76794;BME280;65745;50.278;18.192;2023-01-06T12:44:15;100059.18;;;7.33;71.80
76794;BME280;65745;50.278;18.192;2023-01-06T12:46:55;100067.77;;;7.34;71.87
76794;BME280;65745;50.278;18.192;2023-01-06T12:49:36;100065.10;;;7.36;72.57
76794;BME280;65745;50.278;18.192;2023-01-06T12:52:14;100061.48;;;7.40;72.69
76794;BME280;65745;50.278;18.192;2023-01-06T12:54:53;100049.20;;;7.42;72.46
76794;BME280;65745;50.278;18.192;2023-01-06T12:57:48;100039.56;;;7.45;72.57
76794;BME280;65745;50.278;18.192;2023-01-06T13:00:45;100031.23;;;7.48;72.47
76794;BME280;65745;50.278;18.192;2023-01-06T13:03:35;100024.40;;;7.53;72.23
76794;BME280;65745;50.278;18.192;2023-01-06T13:06:29;100019.14;;;7.59;72.92
76794;BME280;65745;50.278;18.192;2023-01-06T13:09:19;100023.48;;;7.66;73.10
76794;BME280;65745;50.278;18.192;2023-01-06T13:12:07;100022.66;;;7.67;72.49
76794;BME280;65745;50.278;18.192;2023-01-06T13:14:49;100022.86;;;7.68;72.22
76794;BME280;65745;50.278;18.192;2023-01-06T13:17:40;100017.46;;;7.65;72.40
76794;BME280;65745;50.278;18.192;2023-01-06T13:20:21;100017.34;;;7.68;73.14
76794;BME280;65745;50.278;18.192;2023-01-06T13:23:10;100008.34;;;7.64;73.28
76794;BME280;65745;50.278;18.192;2023-01-06T13:26:10;100001.77;;;7.58;73.17
76794;BME280;65745;50.278;18.192;2023-01-06T13:28:58;99999.92;;;7.54;72.58
76794;BME280;65745;50.278;18.192;2023-01-06T13:31:51;100003.46;;;7.42;72.52
76794;BME280;65745;50.278;18.192;2023-01-06T13:35:03;99996.29;;;7.33;72.39
76794;BME280;65745;50.278;18.192;2023-01-06T13:37:56;99993.97;;;7.24;72.88
76794;BME280;65745;50.278;18.192;2023-01-06T13:40:39;99987.58;;;7.18;74.01
76794;BME280;65745;50.278;18.192;2023-01-06T13:43:19;99990.31;;;7.23;73.59
76794;BME280;65745;50.278;18.192;2023-01-06T13:45:55;99989.64;;;7.24;73.59
76794;BME280;65745;50.278;18.192;2023-01-06T13:48:42;99984.55;;;7.20;73.52
76794;BME280;65745;50.278;18.192;2023-01-06T13:51:18;99981.09;;;7.19;73.45
76794;BME280;65745;50.278;18.192;2023-01-06T13:53:54;99983.16;;;7.14;73.43